sensor_id;sensor_type;location;lat;lon;timestamp;pressure;altitude;pressure_sealevel;temperature;humidity
21588;BME280;10956;48.878;13.316;2022-12-18T00:01:49;95256.84;;;-6.43;100.00
21588;BME280;10956;48.878;13.316;2022-12-18T00:04:22;95257.81;;;-6.44;100.00
21588;BME280;10956;48.878;13.316;2022-12-18T00:06:48;95258.34;;;-6.40;100.00
21588;BME280;10956;48.878;13.316;2022-12-18T00:09:13;95271.84;;;-6.48;100.00
21588;BME280;10956;48.878;13.316;2022-12-18T00:11:39;95271.44;;;-6.53;100.00
21588;BME280;10956;48.878;13.316;2022-12-18T00:14:04;95278.03;;;-6.60;100.00
21588;BME280;10956;48.878;13.316;2022-12-18T00:16:30;95281.16;;;-6.66;100.00
21588;BME280;10956;48.878;13.316;2022-12-18T00:18:59;95279.66;;;-6.69;100.00
21588;BME280;10956;48.878;13.316;2022-12-18T00:21:25;95282.63;;;-6.73;100.00
21588;BME280;10956;48.878;13.316;2022-12-18T00:23:51;95282.34;;;-6.70;100.00
21588;BME280;10956;48.878;13.316;2022-12-18T00:26:28;95288.53;;;-6.92;100.00
21588;BME280;10956;48.878;13.316;2022-12-18T00:28:55;95287.16;;;-7.06;100.00
21588;BME280;10956;48.878;13.316;2022-12-18T00:31:24;95303.22;;;-7.04;100.00
21588;BME280;10956;48.878;13.316;2022-12-18T00:33:50;95301.03;;;-7.08;100.00
21588;BME280;10956;48.878;13.316;2022-12-18T00:36:21;95301.69;;;-7.16;100.00
21588;BME280;10956;48.878;13.316;2022-12-18T00:38:47;95298.81;;;-7.32;100.00
21588;BME280;10956;48.878;13.316;2022-12-18T00:41:14;95308.38;;;-7.34;100.00
21588;BME280;10956;48.878;13.316;2022-12-18T00:44:03;95303.25;;;-7.34;100.00
21588;BME280;10956;48.878;13.316;2022-12-18T00:46:29;95311.63;;;-7.32;100.00
21588;BME280;10956;48.878;13.316;2022-12-18T00:48:55;95310.81;;;-7.33;100.00
21588;BME280;10956;48.878;13.316;2022-12-18T00:51:20;95318.38;;;-7.31;100.00
21588;BME280;10956;48.878;13.316;2022-12-18T00:53:45;95311.38;;;-7.29;100.00
21588;BME280;10956;48.878;13.316;2022-12-18T00:56:11;95318.09;;;-7.28;100.00
21588;BME280;10956;48.878;13.316;2022-12-18T00:58:36;95307.59;;;-7.25;100.00
21588;BME280;10956;48.878;13.316;2022-12-18T01:01:04;95312.47;;;-7.22;100.00
21588;BME280;10956;48.878;13.316;2022-12-18T01:03:30;95311.66;;;-7.23;100.00
21588;BME280;10956;48.878;13.316;2022-12-18T01:05:55;95305.16;;;-7.27;100.00
21588;BME280;10956;48.878;13.316;2022-12-18T01:08:21;95309.47;;;-7.27;100.00
21588;BME280;10956;48.878;13.316;2022-12-18T01:10:46;95312.47;;;-7.22;100.00
21588;BME280;10956;48.878;13.316;2022-12-18T01:13:12;95318.81;;;-7.17;100.00
21588;BME280;10956;48.878;13.316;2022-12-18T01:15:37;95313.81;;;-7.18;100.00
21588;BME280;10956;48.878;13.316;2022-12-18T01:18:06;95305.19;;;-7.17;100.00
21588;BME280;10956;48.878;13.316;2022-12-18T01:20:32;95303.06;;;-7.12;100.00
21588;BME280;10956;48.878;13.316;2022-12-18T01:22:57;95305.06;;;-7.15;100.00
21588;BME280;10956;48.878;13.316;2022-12-18T01:25:23;95304.69;;;-7.11;100.00
21588;BME280;10956;48.878;13.316;2022-12-18T01:27:48;95310.31;;;-7.17;100.00
21588;BME280;10956;48.878;13.316;2022-12-18T01:30:14;95304.00;;;-7.13;100.00
21588;BME280;10956;48.878;13.316;2022-12-18T01:32:40;95299.56;;;-7.11;100.00
21588;BME280;10956;48.878;13.316;2022-12-18T01:35:06;95308.88;;;-7.10;100.00
21588;BME280;10956;48.878;13.316;2022-12-18T01:37:32;95308.72;;;-7.08;100.00
21588;BME280;10956;48.878;13.316;2022-12-18T01:39:57;95312.22;;;-7.09;100.00
21588;BME280;10956;48.878;13.316;2022-12-18T01:42:23;95312.63;;;-7.14;100.00
21588;BME280;10956;48.878;13.316;2022-12-18T01:50:07;95316.53;;;-7.20;100.00
21588;BME280;10956;48.878;13.316;2022-12-18T01:52:34;95316.66;;;-7.21;100.00
21588;BME280;10956;48.878;13.316;2022-12-18T01:55:02;95312.72;;;-7.25;100.00
21588;BME280;10956;48.878;13.316;2022-12-18T01:57:28;95312.47;;;-7.22;100.00
21588;BME280;10956;48.878;13.316;2022-12-18T01:59:59;95317.59;;;-7.22;100.00
21588;BME280;10956;48.878;13.316;2022-12-18T02:02:28;95326.72;;;-7.29;100.00
21588;BME280;10956;48.878;13.316;2022-12-18T02:04:54;95335.59;;;-7.33;100.00
21588;BME280;10956;48.878;13.316;2022-12-18T02:10:02;95326.66;;;-7.48;100.00
21588;BME280;10956;48.878;13.316;2022-12-18T02:15:26;95328.78;;;-7.54;100.00
21588;BME280;10956;48.878;13.316;2022-12-18T02:17:59;95320.97;;;-7.52;100.00
21588;BME280;10956;48.878;13.316;2022-12-18T02:20:43;95320.16;;;-7.53;100.00
21588;BME280;10956;48.878;13.316;2022-12-18T02:29:01;95316.72;;;-7.42;100.00
21588;BME280;10956;48.878;13.316;2022-12-18T02:31:39;95316.41;;;-7.48;100.00
21588;BME280;10956;48.878;13.316;2022-12-18T02:34:09;95324.78;;;-7.46;100.00
21588;BME280;10956;48.878;13.316;2022-12-18T02:36:38;95318.28;;;-7.51;100.00
21588;BME280;10956;48.878;13.316;2022-12-18T02:39:07;95317.44;;;-7.61;100.00
21588;BME280;10956;48.878;13.316;2022-12-18T02:41:34;95317.94;;;-7.67;100.00
21588;BME280;10956;48.878;13.316;2022-12-18T02:44:07;95323.06;;;-7.67;100.00
21588;BME280;10956;48.878;13.316;2022-12-18T02:46:36;95323.06;;;-7.67;100.00
21588;BME280;10956;48.878;13.316;2022-12-18T02:52:10;95313.69;;;-7.57;100.00
21588;BME280;10956;48.878;13.316;2022-12-18T03:00:14;95309.25;;;-7.55;100.00
21588;BME280;10956;48.878;13.316;2022-12-18T03:02:47;95317.06;;;-7.56;100.00
21588;BME280;10956;48.878;13.316;2022-12-18T03:05:17;95323.22;;;-7.59;100.00
21588;BME280;10956;48.878;13.316;2022-12-18T03:08:16;95317.94;;;-7.67;100.00
21588;BME280;10956;48.878;13.316;2022-12-18T03:10:51;95315.50;;;-7.68;100.00
21588;BME280;10956;48.878;13.316;2022-12-18T03:13:24;95315.75;;;-7.71;100.00
21588;BME280;10956;48.878;13.316;2022-12-18T03:15:55;95317.50;;;-7.72;100.00
21588;BME280;10956;48.878;13.316;2022-12-18T03:20:55;95315.72;;;-7.81;100.00
21588;BME280;10956;48.878;13.316;2022-12-18T03:23:26;95319.88;;;-7.80;100.00
21588;BME280;10956;48.878;13.316;2022-12-18T03:25:55;95325.81;;;-7.79;100.00
21588;BME280;10956;48.878;13.316;2022-12-18T03:28:22;95327.31;;;-7.77;100.00
21588;BME280;10956;48.878;13.316;2022-12-18T03:30:52;95331.94;;;-7.71;100.00
21588;BME280;10956;48.878;13.316;2022-12-18T03:33:25;95336.91;;;-7.69;100.00
21588;BME280;10956;48.878;13.316;2022-12-18T03:35:52;95343.78;;;-7.70;100.00
21588;BME280;10956;48.878;13.316;2022-12-18T03:38:18;95343.78;;;-7.70;100.00
21588;BME280;10956;48.878;13.316;2022-12-18T03:43:55;95341.91;;;-7.68;100.00
21588;BME280;10956;48.878;13.316;2022-12-18T03:46:30;95338.41;;;-7.67;100.00
21588;BME280;10956;48.878;13.316;2022-12-18T03:49:08;95341.66;;;-7.65;100.00
21588;BME280;10956;48.878;13.316;2022-12-18T03:54:11;95344.41;;;-7.57;100.00
21588;BME280;10956;48.878;13.316;2022-12-18T03:56:40;95344.16;;;-7.54;100.00
21588;BME280;10956;48.878;13.316;2022-12-18T03:59:07;95347.19;;;-7.39;99.50
21588;BME280;10956;48.878;13.316;2022-12-18T04:01:38;95340.13;;;-7.46;100.00
21588;BME280;10956;48.878;13.316;2022-12-18T04:04:05;95342.28;;;-7.52;100.00
21588;BME280;10956;48.878;13.316;2022-12-18T04:06:32;95334.91;;;-7.66;100.00
21588;BME280;10956;48.878;13.316;2022-12-18T04:08:59;95341.66;;;-7.65;100.00
21588;BME280;10956;48.878;13.316;2022-12-18T04:11:25;95335.72;;;-7.65;100.00
21588;BME280;10956;48.878;13.316;2022-12-18T04:13:50;95339.78;;;-7.63;100.00
21588;BME280;10956;48.878;13.316;2022-12-18T04:16:20;95341.09;;;-7.68;100.00
21588;BME280;10956;48.878;13.316;2022-12-18T04:18:45;95344.91;;;-7.63;100.00
21588;BME280;10956;48.878;13.316;2022-12-18T04:21:11;95341.28;;;-7.60;100.00
21588;BME280;10956;48.878;13.316;2022-12-18T04:23:36;95346.78;;;-7.65;100.00
21588;BME280;10956;48.878;13.316;2022-12-18T04:26:01;95344.53;;;-7.79;100.00
21588;BME280;10956;48.878;13.316;2022-12-18T04:28:27;95350.84;;;-7.83;100.00
21588;BME280;10956;48.878;13.316;2022-12-18T04:30:52;95351.22;;;-7.88;100.00
21588;BME280;10956;48.878;13.316;2022-12-18T04:33:18;95350.16;;;-7.85;100.00
21588;BME280;10956;48.878;13.316;2022-12-18T04:35:43;95359.91;;;-7.79;100.00
21588;BME280;10956;48.878;13.316;2022-12-18T04:38:09;95359.66;;;-7.76;100.00
21588;BME280;10956;48.878;13.316;2022-12-18T04:40:36;95360.34;;;-7.74;100.00
21588;BME280;10956;48.878;13.316;2022-12-18T04:43:02;95369.50;;;-7.71;100.00
21588;BME280;10956;48.878;13.316;2022-12-18T04:45:28;95376.25;;;-7.70;100.00
21588;BME280;10956;48.878;13.316;2022-12-18T04:47:57;95379.63;;;-7.70;100.00
21588;BME280;10956;48.878;13.316;2022-12-18T04:50:22;95377.06;;;-7.70;100.00
21588;BME280;10956;48.878;13.316;2022-12-18T04:52:48;95371.56;;;-7.65;100.00
21588;BME280;10956;48.878;13.316;2022-12-18T04:55:13;95375.88;;;-7.66;100.00
21588;BME280;10956;48.878;13.316;2022-12-18T04:57:39;95377.50;;;-7.65;100.00
21588;BME280;10956;48.878;13.316;2022-12-18T05:00:05;95377.75;;;-7.68;100.00
21588;BME280;10956;48.878;13.316;2022-12-18T05:02:31;95382.88;;;-7.68;100.00
21588;BME280;10956;48.878;13.316;2022-12-18T05:04:57;95377.75;;;-7.68;100.00
21588;BME280;10956;48.878;13.316;2022-12-18T05:07:22;95381.00;;;-7.66;100.00
21588;BME280;10956;48.878;13.316;2022-12-18T05:09:47;95384.50;;;-7.67;100.00
21588;BME280;10956;48.878;13.316;2022-12-18T05:12:13;95392.16;;;-7.67;100.00
21588;BME280;10956;48.878;13.316;2022-12-18T05:14:38;95393.16;;;-7.79;100.00
21588;BME280;10956;48.878;13.316;2022-12-18T05:17:04;95399.03;;;-7.88;100.00
21588;BME280;10956;48.878;13.316;2022-12-18T05:19:29;95393.97;;;-7.99;100.00
21588;BME280;10956;48.878;13.316;2022-12-18T05:21:54;95394.91;;;-8.00;100.00
21588;BME280;10956;48.878;13.316;2022-12-18T05:24:20;95400.97;;;-8.01;100.00
21588;BME280;10956;48.878;13.316;2022-12-18T05:26:45;95394.72;;;-8.08;100.00
21588;BME280;10956;48.878;13.316;2022-12-18T05:29:11;95399.09;;;-7.99;100.00
21588;BME280;10956;48.878;13.316;2022-12-18T05:31:38;95392.72;;;-7.84;100.00
21588;BME280;10956;48.878;13.316;2022-12-18T05:34:04;95396.22;;;-7.85;100.00
21588;BME280;10956;48.878;13.316;2022-12-18T05:36:29;95399.97;;;-7.89;100.00
21588;BME280;10956;48.878;13.316;2022-12-18T05:38:55;95398.84;;;-7.96;100.00
21588;BME280;10956;48.878;13.316;2022-12-18T05:41:20;95399.78;;;-7.97;100.00
21588;BME280;10956;48.878;13.316;2022-12-18T05:43:46;95402.91;;;-7.94;100.00
21588;BME280;10956;48.878;13.316;2022-12-18T05:46:13;95410.44;;;-7.92;100.00
21588;BME280;10956;48.878;13.316;2022-12-18T05:48:40;95406.03;;;-7.90;100.00
21588;BME280;10956;48.878;13.316;2022-12-18T05:51:08;95408.34;;;-7.87;100.00
21588;BME280;10956;48.878;13.316;2022-12-18T05:53:35;95400.47;;;-7.95;100.00
21588;BME280;10956;48.878;13.316;2022-12-18T05:56:03;95407.44;;;-7.97;100.00
21588;BME280;10956;48.878;13.316;2022-12-18T05:58:29;95406.25;;;-7.93;100.00
21588;BME280;10956;48.878;13.316;2022-12-18T06:00:55;95406.25;;;-7.93;100.00
21588;BME280;10956;48.878;13.316;2022-12-18T06:03:21;95402.34;;;-7.97;100.00
21588;BME280;10956;48.878;13.316;2022-12-18T06:05:46;95410.94;;;-7.98;100.00
21588;BME280;10956;48.878;13.316;2022-12-18T06:08:12;95410.69;;;-7.95;100.00
21588;BME280;10956;48.878;13.316;2022-12-18T06:10:38;95414.88;;;-7.94;100.00
21588;BME280;10956;48.878;13.316;2022-12-18T06:13:05;95419.31;;;-7.96;100.00
21588;BME280;10956;48.878;13.316;2022-12-18T06:15:31;95415.56;;;-7.92;100.00
21588;BME280;10956;48.878;13.316;2022-12-18T06:17:56;95425.00;;;-7.93;100.00
21588;BME280;10956;48.878;13.316;2022-12-18T06:20:22;95423.13;;;-7.91;100.00
21588;BME280;10956;48.878;13.316;2022-12-18T06:22:47;95423.94;;;-7.90;100.00
21588;BME280;10956;48.878;13.316;2022-12-18T06:25:13;95424.88;;;-7.91;100.00
21588;BME280;10956;48.878;13.316;2022-12-18T06:27:38;95421.38;;;-7.90;100.00
21588;BME280;10956;48.878;13.316;2022-12-18T06:30:04;95422.75;;;-7.86;100.00
21588;BME280;10956;48.878;13.316;2022-12-18T06:32:30;95413.19;;;-7.84;100.00
21588;BME280;10956;48.878;13.316;2022-12-18T06:34:55;95415.38;;;-7.79;100.00
21588;BME280;10956;48.878;13.316;2022-12-18T06:37:22;95417.81;;;-7.78;100.00
21588;BME280;10956;48.878;13.316;2022-12-18T06:39:51;95420.38;;;-7.78;100.00
21588;BME280;10956;48.878;13.316;2022-12-18T06:42:16;95426.75;;;-7.72;100.00
21588;BME280;10956;48.878;13.316;2022-12-18T06:44:42;95418.94;;;-7.71;100.00
21588;BME280;10956;48.878;13.316;2022-12-18T06:47:07;95415.94;;;-7.76;100.00
21588;BME280;10956;48.878;13.316;2022-12-18T06:49:32;95414.06;;;-7.74;100.00
21588;BME280;10956;48.878;13.316;2022-12-18T06:51:58;95407.09;;;-7.72;100.00
21588;BME280;10956;48.878;13.316;2022-12-18T06:54:23;95411.28;;;-7.71;100.00
21588;BME280;10956;48.878;13.316;2022-12-18T06:56:49;95423.38;;;-7.73;100.00
21588;BME280;10956;48.878;13.316;2022-12-18T06:59:14;95431.88;;;-7.72;100.00
21588;BME280;10956;48.878;13.316;2022-12-18T07:01:40;95420.31;;;-7.67;100.00
21588;BME280;10956;48.878;13.316;2022-12-18T07:04:05;95425.69;;;-7.70;100.00
21588;BME280;10956;48.878;13.316;2022-12-18T07:06:30;95428.69;;;-7.65;100.00
21588;BME280;10956;48.878;13.316;2022-12-18T07:08:56;95440.31;;;-7.61;100.00
21588;BME280;10956;48.878;13.316;2022-12-18T07:11:22;95432.63;;;-7.61;100.00
21588;BME280;10956;48.878;13.316;2022-12-18T07:13:47;95432.50;;;-7.59;100.00
21588;BME280;10956;48.878;13.316;2022-12-18T07:16:18;95431.31;;;-7.55;100.00
21588;BME280;10956;48.878;13.316;2022-12-18T07:18:44;95442.81;;;-7.50;100.00
21588;BME280;10956;48.878;13.316;2022-12-18T07:21:15;95438.00;;;-7.43;100.00
21588;BME280;10956;48.878;13.316;2022-12-18T07:23:41;95441.13;;;-7.39;100.00
21588;BME280;10956;48.878;13.316;2022-12-18T07:26:09;95444.94;;;-7.55;100.00
21588;BME280;10956;48.878;13.316;2022-12-18T07:28:36;95454.84;;;-7.82;100.00
21588;BME280;10956;48.878;13.316;2022-12-18T07:31:08;95454.16;;;-7.84;100.00
21588;BME280;10956;48.878;13.316;2022-12-18T07:33:34;95447.97;;;-7.82;100.00
21588;BME280;10956;48.878;13.316;2022-12-18T07:36:01;95463.88;;;-7.78;100.00
21588;BME280;10956;48.878;13.316;2022-12-18T07:38:26;95457.59;;;-7.74;100.00
21588;BME280;10956;48.878;13.316;2022-12-18T07:40:52;95454.53;;;-7.68;100.00
21588;BME280;10956;48.878;13.316;2022-12-18T07:43:17;95464.28;;;-7.62;100.00
21588;BME280;10956;48.878;13.316;2022-12-18T07:45:43;95454.47;;;-7.57;100.00
21588;BME280;10956;48.878;13.316;2022-12-18T07:48:08;95471.09;;;-7.51;100.00
21588;BME280;10956;48.878;13.316;2022-12-18T07:50:34;95463.97;;;-7.47;100.00
21588;BME280;10956;48.878;13.316;2022-12-18T07:53:00;95466.28;;;-7.44;100.00
21588;BME280;10956;48.878;13.316;2022-12-18T07:55:31;95468.22;;;-7.37;100.00
21588;BME280;10956;48.878;13.316;2022-12-18T07:58:03;95472.03;;;-7.31;100.00
21588;BME280;10956;48.878;13.316;2022-12-18T08:00:29;95476.59;;;-7.35;100.00
21588;BME280;10956;48.878;13.316;2022-12-18T08:02:57;95479.03;;;-7.33;100.00
21588;BME280;10956;48.878;13.316;2022-12-18T08:05:27;95471.09;;;-7.30;100.00
21588;BME280;10956;48.878;13.316;2022-12-18T08:07:53;95476.91;;;-7.28;100.00
21588;BME280;10956;48.878;13.316;2022-12-18T08:10:20;95465.34;;;-7.23;100.00
21588;BME280;10956;48.878;13.316;2022-12-18T08:12:48;95473.34;;;-7.16;100.00
21588;BME280;10956;48.878;13.316;2022-12-18T08:15:13;95473.75;;;-7.11;100.00
21588;BME280;10956;48.878;13.316;2022-12-18T08:17:39;95466.75;;;-7.09;100.00
21588;BME280;10956;48.878;13.316;2022-12-18T08:20:04;95470.69;;;-7.05;100.00
21588;BME280;10956;48.878;13.316;2022-12-18T08:22:30;95474.88;;;-7.04;100.00
21588;BME280;10956;48.878;13.316;2022-12-18T08:24:55;95473.00;;;-7.02;100.00
21588;BME280;10956;48.878;13.316;2022-12-18T08:27:21;95467.94;;;-6.92;100.00
21588;BME280;10956;48.878;13.316;2022-12-18T08:29:46;95465.53;;;-6.84;100.00
21588;BME280;10956;48.878;13.316;2022-12-18T08:32:12;95473.78;;;-6.80;100.00
21588;BME280;10956;48.878;13.316;2022-12-18T08:34:37;95469.06;;;-6.75;99.91
21588;BME280;10956;48.878;13.316;2022-12-18T08:37:03;95471.63;;;-6.75;99.79
21588;BME280;10956;48.878;13.316;2022-12-18T08:39:28;95470.69;;;-6.74;100.00
21588;BME280;10956;48.878;13.316;2022-12-18T08:41:54;95472.44;;;-6.75;100.00
21588;BME280;10956;48.878;13.316;2022-12-18T08:44:42;95474.19;;;-6.75;100.00
21588;BME280;10956;48.878;13.316;2022-12-18T08:47:08;95479.34;;;-6.75;100.00
21588;BME280;10956;48.878;13.316;2022-12-18T08:49:35;95473.69;;;-6.69;100.00
21588;BME280;10956;48.878;13.316;2022-12-18T08:52:00;95479.50;;;-6.67;100.00
21588;BME280;10956;48.878;13.316;2022-12-18T08:54:27;95481.53;;;-6.61;100.00
21588;BME280;10956;48.878;13.316;2022-12-18T08:56:53;95491.28;;;-6.55;100.00
21588;BME280;10956;48.878;13.316;2022-12-18T08:59:19;95492.91;;;-6.54;100.00
21588;BME280;10956;48.878;13.316;2022-12-18T09:01:45;95492.91;;;-6.54;100.00
21588;BME280;10956;48.878;13.316;2022-12-18T09:04:11;95489.94;;;-6.49;100.00
21588;BME280;10956;48.878;13.316;2022-12-18T09:06:37;95489.69;;;-6.46;100.00
21588;BME280;10956;48.878;13.316;2022-12-18T09:09:04;95491.75;;;-6.40;100.00
21588;BME280;10956;48.878;13.316;2022-12-18T09:11:30;95490.66;;;-6.38;100.00
21588;BME280;10956;48.878;13.316;2022-12-18T09:13:56;95494.84;;;-6.37;100.00
21588;BME280;10956;48.878;13.316;2022-12-18T09:16:24;95494.72;;;-6.35;100.00
21588;BME280;10956;48.878;13.316;2022-12-18T09:18:49;95506.09;;;-6.28;100.00
21588;BME280;10956;48.878;13.316;2022-12-18T09:21:17;95509.19;;;-6.25;100.00
21588;BME280;10956;48.878;13.316;2022-12-18T09:23:44;95512.88;;;-6.17;100.00
21588;BME280;10956;48.878;13.316;2022-12-18T09:26:14;95509.78;;;-6.11;100.00
21588;BME280;10956;48.878;13.316;2022-12-18T09:28:39;95512.50;;;-6.03;100.00
21588;BME280;10956;48.878;13.316;2022-12-18T09:31:06;95515.88;;;-6.03;100.00
21588;BME280;10956;48.878;13.316;2022-12-18T09:33:33;95516.41;;;-5.99;100.00
21588;BME280;10956;48.878;13.316;2022-12-18T09:36:01;95515.22;;;-5.95;100.00
21588;BME280;10956;48.878;13.316;2022-12-18T09:38:27;95502.63;;;-5.98;100.00
21588;BME280;10956;48.878;13.316;2022-12-18T09:40:58;95506.84;;;-5.97;100.00
21588;BME280;10956;48.878;13.316;2022-12-18T09:43:35;95508.47;;;-5.96;100.00
21588;BME280;10956;48.878;13.316;2022-12-18T09:46:06;95512.13;;;-5.89;100.00
21588;BME280;10956;48.878;13.316;2022-12-18T09:48:39;95514.13;;;-5.83;100.00
21588;BME280;10956;48.878;13.316;2022-12-18T09:51:28;95507.38;;;-5.74;100.00
21588;BME280;10956;48.878;13.316;2022-12-18T09:54:07;95508.19;;;-5.74;100.00
21588;BME280;10956;48.878;13.316;2022-12-18T09:56:38;95501.16;;;-5.72;100.00
21588;BME280;10956;48.878;13.316;2022-12-18T09:59:05;95500.88;;;-5.69;100.00
21588;BME280;10956;48.878;13.316;2022-12-18T10:01:32;95493.31;;;-5.61;100.00
21588;BME280;10956;48.878;13.316;2022-12-18T10:03:58;95490.47;;;-5.58;100.00
21588;BME280;10956;48.878;13.316;2022-12-18T10:06:29;95489.41;;;-5.55;100.00
21588;BME280;10956;48.878;13.316;2022-12-18T10:11:34;95480.34;;;-5.49;100.00
21588;BME280;10956;48.878;13.316;2022-12-18T10:19:52;95464.22;;;-5.32;100.00
21588;BME280;10956;48.878;13.316;2022-12-18T10:25:05;95466.53;;;-5.29;100.00
21588;BME280;10956;48.878;13.316;2022-12-18T10:27:35;95467.06;;;-5.26;100.00
21588;BME280;10956;48.878;13.316;2022-12-18T10:30:04;95464.06;;;-5.21;100.00
21588;BME280;10956;48.878;13.316;2022-12-18T10:32:33;95468.38;;;-5.12;100.00
21588;BME280;10956;48.878;13.316;2022-12-18T10:34:58;95460.78;;;-5.04;100.00
21588;BME280;10956;48.878;13.316;2022-12-18T10:37:26;95462.13;;;-5.00;100.00
21588;BME280;10956;48.878;13.316;2022-12-18T10:40:13;95456.72;;;-4.97;100.00
21588;BME280;10956;48.878;13.316;2022-12-18T10:42:40;95451.44;;;-4.95;100.00
21588;BME280;10956;48.878;13.316;2022-12-18T10:45:15;95446.97;;;-4.93;100.00
21588;BME280;10956;48.878;13.316;2022-12-18T10:47:46;95444.25;;;-4.92;100.00
21588;BME280;10956;48.878;13.316;2022-12-18T10:50:29;95444.78;;;-4.88;100.00
21588;BME280;10956;48.878;13.316;2022-12-18T10:52:57;95455.31;;;-4.81;100.00
21588;BME280;10956;48.878;13.316;2022-12-18T10:55:32;95453.69;;;-4.82;100.00
21588;BME280;10956;48.878;13.316;2022-12-18T10:58:21;95443.69;;;-4.85;100.00
21588;BME280;10956;48.878;13.316;2022-12-18T11:01:08;95448.28;;;-4.79;100.00
21588;BME280;10956;48.878;13.316;2022-12-18T11:03:37;95451.78;;;-4.80;100.00
21588;BME280;10956;48.878;13.316;2022-12-18T11:06:13;95446.66;;;-4.80;100.00
21588;BME280;10956;48.878;13.316;2022-12-18T11:08:41;95440.66;;;-4.71;100.00
21588;BME280;10956;48.878;13.316;2022-12-18T11:11:15;95439.72;;;-4.70;100.00
21588;BME280;10956;48.878;13.316;2022-12-18T11:13:57;95434.72;;;-4.72;100.00
21588;BME280;10956;48.878;13.316;2022-12-18T11:16:24;95430.09;;;-4.68;100.00
21588;BME280;10956;48.878;13.316;2022-12-18T11:18:50;95424.66;;;-4.65;100.00
21588;BME280;10956;48.878;13.316;2022-12-18T11:21:16;95425.72;;;-4.58;100.00
21588;BME280;10956;48.878;13.316;2022-12-18T11:23:50;95411.47;;;-4.52;100.00
21588;BME280;10956;48.878;13.316;2022-12-18T11:26:16;95415.78;;;-4.53;100.00
21588;BME280;10956;48.878;13.316;2022-12-18T11:29:10;95416.75;;;-4.54;100.00
21588;BME280;10956;48.878;13.316;2022-12-18T11:31:36;95417.13;;;-4.49;100.00
21588;BME280;10956;48.878;13.316;2022-12-18T11:34:26;95416.19;;;-4.48;100.00
21588;BME280;10956;48.878;13.316;2022-12-18T11:36:53;95408.16;;;-4.45;100.00
21588;BME280;10956;48.878;13.316;2022-12-18T11:41:54;95401.50;;;-4.38;100.00
21588;BME280;10956;48.878;13.316;2022-12-18T11:44:50;95403.13;;;-4.37;100.00
21588;BME280;10956;48.878;13.316;2022-12-18T11:50:18;95401.59;;;-4.30;100.00
21588;BME280;10956;48.878;13.316;2022-12-18T11:52:44;95397.91;;;-4.27;100.00
21588;BME280;10956;48.878;13.316;2022-12-18T11:58:07;95399.47;;;-4.16;100.00
21588;BME280;10956;48.878;13.316;2022-12-18T12:00:42;95413.66;;;-4.12;100.00
21588;BME280;10956;48.878;13.316;2022-12-18T12:28:13;95430.75;;;-3.94;100.00
21588;BME280;10956;48.878;13.316;2022-12-18T12:36:28;95427.94;;;-3.82;100.00
21588;BME280;10956;48.878;13.316;2022-12-18T12:39:02;95423.81;;;-3.75;100.00
21588;BME280;10956;48.878;13.316;2022-12-18T12:41:32;95425.44;;;-3.74;100.00
21588;BME280;10956;48.878;13.316;2022-12-18T12:44:24;95428.91;;;-3.83;100.00
21588;BME280;10956;48.878;13.316;2022-12-18T12:46:55;95418.75;;;-3.85;100.00
21588;BME280;10956;48.878;13.316;2022-12-18T12:49:26;95421.97;;;-3.83;100.00
21588;BME280;10956;48.878;13.316;2022-12-18T12:52:00;95427.94;;;-3.82;100.00
21588;BME280;10956;48.878;13.316;2022-12-18T12:54:31;95427.13;;;-3.83;100.00
21588;BME280;10956;48.878;13.316;2022-12-18T12:57:18;95429.78;;;-3.75;100.00
21588;BME280;10956;48.878;13.316;2022-12-18T13:02:22;95434.34;;;-3.69;100.00
21588;BME280;10956;48.878;13.316;2022-12-18T13:04:57;95418.22;;;-3.71;100.00
21588;BME280;10956;48.878;13.316;2022-12-18T13:07:31;95416.31;;;-3.69;100.00
21588;BME280;10956;48.878;13.316;2022-12-18T13:12:54;95406.81;;;-3.68;100.00
21588;BME280;10956;48.878;13.316;2022-12-18T13:20:36;95405.34;;;-3.71;100.00
21588;BME280;10956;48.878;13.316;2022-12-18T13:25:50;95416.25;;;-3.77;100.00
21588;BME280;10956;48.878;13.316;2022-12-18T13:28:21;95409.19;;;-3.75;100.00
21588;BME280;10956;48.878;13.316;2022-12-18T13:30:56;95409.53;;;-3.70;100.00
21588;BME280;10956;48.878;13.316;2022-12-18T13:38:33;95400.91;;;-3.61;100.00
21588;BME280;10956;48.878;13.316;2022-12-18T13:41:02;95387.88;;;-3.59;100.00
21588;BME280;10956;48.878;13.316;2022-12-18T13:51:42;95378.38;;;-3.59;100.00
21588;BME280;10956;48.878;13.316;2022-12-18T13:54:33;95376.78;;;-3.60;100.00
21588;BME280;10956;48.878;13.316;2022-12-18T13:57:01;95376.56;;;-3.66;100.00
21588;BME280;10956;48.878;13.316;2022-12-18T13:59:37;95377.66;;;-3.69;100.00
21588;BME280;10956;48.878;13.316;2022-12-18T14:02:14;95386.34;;;-3.70;100.00
21588;BME280;10956;48.878;13.316;2022-12-18T14:04:40;95391.50;;;-3.70;100.00
21588;BME280;10956;48.878;13.316;2022-12-18T14:07:10;95389.88;;;-3.71;100.00
21588;BME280;10956;48.878;13.316;2022-12-18T14:09:42;95392.47;;;-3.71;100.00
21588;BME280;10956;48.878;13.316;2022-12-18T14:12:27;95394.75;;;-3.68;100.00
21588;BME280;10956;48.878;13.316;2022-12-18T14:15:34;95394.22;;;-3.71;100.00
21588;BME280;10956;48.878;13.316;2022-12-18T14:21:01;95397.56;;;-3.79;100.00
21588;BME280;10956;48.878;13.316;2022-12-18T14:26:00;95396.66;;;-3.87;100.00
21588;BME280;10956;48.878;13.316;2022-12-18T14:28:26;95405.78;;;-3.93;100.00
21588;BME280;10956;48.878;13.316;2022-12-18T14:30:52;95404.31;;;-3.96;100.00
21588;BME280;10956;48.878;13.316;2022-12-18T14:33:24;95410.22;;;-4.03;100.00
21588;BME280;10956;48.878;13.316;2022-12-18T14:35:59;95408.59;;;-4.04;100.00
21588;BME280;10956;48.878;13.316;2022-12-18T14:41:04;95411.47;;;-4.07;100.00
21588;BME280;10956;48.878;13.316;2022-12-18T14:43:36;95405.78;;;-4.11;100.00
21588;BME280;10956;48.878;13.316;2022-12-18T14:46:03;95417.34;;;-4.15;100.00
21588;BME280;10956;48.878;13.316;2022-12-18T14:48:42;95418.72;;;-4.20;100.00